createdAt,value
2018-07-28T00:00:30.653Z,14.70
2018-07-28T00:02:59.622Z,17.77
2018-07-28T00:05:28.662Z,19.77
2018-07-28T00:07:57.578Z,18.67
2018-07-28T00:10:26.590Z,25.20
2018-07-28T00:12:56.496Z,15.60
2018-07-28T00:15:25.500Z,18.30
2018-07-28T00:17:54.461Z,19.73
2018-07-28T00:20:23.345Z,12.97
2018-07-28T00:22:52.277Z,20.83
2018-07-28T00:25:21.245Z,16.03
2018-07-28T00:27:50.238Z,24.30
2018-07-28T00:30:19.240Z,15.93
2018-07-28T00:32:49.158Z,20.57
2018-07-28T00:35:18.144Z,18.03
2018-07-28T00:37:47.233Z,20.83
2018-07-28T00:40:16.135Z,23.23
2018-07-28T00:42:45.042Z,21.83
2018-07-28T00:45:14.042Z,18.50
2018-07-28T00:47:43.026Z,18.97
2018-07-28T00:50:11.944Z,24.63
2018-07-28T00:52:40.946Z,29.43
2018-07-28T00:55:09.831Z,18.73
2018-07-28T00:57:38.826Z,23.77
2018-07-28T01:00:08.530Z,17.60
2018-07-28T01:02:37.778Z,21.87
2018-07-28T01:05:07.254Z,23.40
2018-07-28T01:07:36.326Z,24.37
2018-07-28T01:10:06.282Z,17.77
2018-07-28T01:12:35.326Z,19.83
2018-07-28T01:15:05.164Z,17.50
2018-07-28T01:17:34.218Z,19.57
2018-07-28T01:20:03.213Z,21.03
2018-07-28T01:22:32.130Z,20.13
2018-07-28T01:25:01.038Z,16.60
2018-07-28T01:27:29.920Z,12.97
2018-07-28T01:29:58.842Z,19.07
2018-07-28T01:32:27.776Z,24.57
2018-07-28T01:34:56.686Z,17.43
2018-07-28T01:37:25.638Z,17.23
2018-07-28T01:39:54.685Z,14.50
2018-07-28T01:42:23.555Z,15.97
2018-07-28T01:44:52.579Z,14.30
2018-07-28T01:47:21.517Z,13.50
2018-07-28T01:49:50.499Z,14.97
2018-07-28T01:52:19.588Z,16.37
2018-07-28T01:54:48.442Z,15.17
2018-07-28T01:57:17.361Z,16.07
2018-07-28T01:59:46.382Z,11.97
2018-07-28T02:02:15.241Z,14.90
2018-07-28T02:04:44.135Z,17.23
2018-07-28T02:07:13.083Z,13.17
2018-07-28T02:09:41.987Z,16.63
2018-07-28T02:12:10.949Z,16.40
2018-07-28T02:14:39.883Z,14.90
2018-07-28T02:17:08.823Z,10.70
2018-07-28T02:19:37.754Z,17.80
2018-07-28T02:22:06.707Z,13.00
2018-07-28T02:24:35.687Z,14.10
2018-07-28T02:27:04.671Z,12.37
2018-07-28T02:29:33.559Z,12.87
2018-07-28T02:32:02.443Z,12.17
2018-07-28T02:34:31.342Z,12.03
2018-07-28T02:37:00.267Z,12.33
2018-07-28T02:39:29.168Z,7.83
2018-07-28T02:41:58.146Z,13.00
2018-07-28T02:44:27.101Z,14.80
2018-07-28T02:46:56.011Z,9.60
2018-07-28T02:49:25.026Z,9.37
2018-07-28T02:51:53.940Z,13.37
2018-07-28T02:54:22.968Z,11.20
2018-07-28T02:56:52.169Z,17.63
2018-07-28T02:59:21.299Z,11.80
2018-07-28T03:01:50.548Z,9.73
2018-07-28T03:04:19.763Z,10.63
2018-07-28T03:06:48.960Z,15.37
2018-07-28T03:09:18.180Z,16.03
2018-07-28T03:11:47.274Z,10.03
2018-07-28T03:14:16.492Z,19.30
2018-07-28T03:16:45.696Z,15.70
2018-07-28T03:19:15.044Z,18.63
2018-07-28T03:21:44.231Z,14.20
2018-07-28T03:24:13.608Z,15.17
2018-07-28T03:26:42.894Z,12.83
2018-07-28T03:29:12.265Z,11.87
2018-07-28T03:31:41.417Z,13.77
2018-07-28T03:34:10.724Z,15.33
2018-07-28T03:36:39.864Z,11.53
2018-07-28T03:39:10.466Z,12.60
2018-07-28T03:41:39.657Z,14.93
2018-07-28T03:44:08.970Z,14.10
2018-07-28T03:46:38.817Z,14.43
2018-07-28T03:49:13.631Z,13.13
2018-07-28T03:51:48.269Z,14.00
2018-07-28T03:54:17.379Z,13.53
2018-07-28T03:56:46.458Z,12.47
2018-07-28T03:59:16.468Z,16.43
2018-07-28T04:01:45.753Z,10.57
2018-07-28T04:04:14.926Z,12.00
2018-07-28T04:06:44.253Z,12.97
2018-07-28T04:09:13.464Z,9.63
2018-07-28T04:11:42.551Z,8.00
2018-07-28T04:14:11.649Z,13.17
2018-07-28T04:16:40.725Z,12.77
2018-07-28T04:19:09.950Z,12.47
2018-07-28T04:21:39.071Z,8.63
2018-07-28T04:24:08.319Z,13.23
2018-07-28T04:26:37.621Z,12.63
2018-07-28T04:29:07.726Z,13.07
2018-07-28T04:36:14.653Z,12.17
2018-07-28T04:38:43.786Z,10.03
2018-07-28T04:41:12.961Z,6.03
2018-07-28T04:43:42.015Z,6.80
2018-07-28T04:46:12.524Z,7.87
2018-07-28T04:48:41.651Z,13.03
2018-07-28T04:51:10.829Z,11.97
2018-07-28T04:53:39.877Z,11.07
2018-07-28T04:56:08.941Z,12.17
2018-07-28T04:58:38.117Z,13.40
2018-07-28T05:01:07.199Z,19.23
2018-07-28T05:03:36.279Z,13.10
2018-07-28T05:06:05.184Z,17.80
2018-07-28T05:08:34.177Z,15.73
2018-07-28T05:11:03.269Z,15.93
2018-07-28T05:13:32.251Z,15.80
2018-07-28T05:16:01.191Z,18.33
2018-07-28T05:18:30.155Z,13.83
2018-07-28T05:20:59.092Z,13.83
2018-07-28T05:23:28.025Z,14.17
2018-07-28T05:25:56.911Z,19.80
2018-07-28T05:28:25.908Z,18.13
2018-07-28T05:30:54.947Z,14.33
2018-07-28T05:33:23.915Z,11.07
2018-07-28T05:35:52.794Z,11.63
2018-07-28T05:38:22.064Z,17.30
2018-07-28T05:40:50.981Z,18.57
2018-07-28T05:43:20.002Z,16.03
2018-07-28T05:45:49.117Z,17.13
2018-07-28T05:48:18.072Z,21.60
2018-07-28T05:50:47.151Z,14.57
2018-07-28T05:53:16.082Z,16.20
2018-07-28T05:55:45.053Z,14.57
2018-07-28T05:58:14.050Z,13.23
2018-07-28T06:00:43.013Z,15.00
2018-07-28T06:03:11.946Z,16.70
2018-07-28T06:05:40.911Z,16.10
2018-07-28T06:08:09.942Z,15.13
2018-07-28T06:10:39.010Z,14.33
2018-07-28T06:13:07.916Z,13.57
2018-07-28T06:15:36.916Z,21.93
2018-07-28T06:18:05.905Z,15.97
2018-07-28T06:20:34.872Z,19.97
2018-07-28T06:23:04.102Z,15.47
2018-07-28T06:25:33.341Z,16.17
2018-07-28T06:28:02.430Z,14.40
2018-07-28T06:30:31.520Z,19.57
2018-07-28T06:33:00.412Z,23.30
2018-07-28T06:35:29.402Z,17.10
2018-07-28T06:37:58.377Z,17.50
2018-07-28T06:40:27.388Z,17.33
2018-07-28T06:42:56.404Z,21.07
2018-07-28T06:45:25.437Z,17.53
2018-07-28T06:47:54.411Z,19.53
2018-07-28T06:50:23.374Z,14.97
2018-07-28T06:52:52.351Z,15.17
2018-07-28T06:55:21.332Z,13.87
2018-07-28T06:57:51.325Z,17.10
2018-07-28T07:00:20.444Z,17.60
2018-07-28T07:02:49.415Z,14.73
2018-07-28T07:05:18.360Z,16.63
2018-07-28T07:07:47.278Z,16.87
2018-07-28T07:10:16.159Z,19.97
2018-07-28T07:12:45.080Z,16.47
2018-07-28T07:15:14.096Z,14.50
2018-07-28T07:17:43.043Z,14.03
2018-07-28T07:20:11.928Z,19.03
2018-07-28T07:22:40.913Z,15.00
2018-07-28T07:25:10.387Z,17.50
2018-07-28T07:27:39.364Z,17.73
2018-07-28T07:30:08.398Z,18.43
2018-07-28T07:32:37.344Z,18.03
2018-07-28T07:35:06.231Z,21.43
2018-07-28T07:37:35.146Z,19.00
2018-07-28T07:40:04.064Z,20.13
2018-07-28T07:42:32.999Z,19.17
2018-07-28T07:45:02.120Z,17.87
2018-07-28T07:47:31.223Z,22.23
2018-07-28T07:50:00.206Z,22.67
2018-07-28T07:52:29.204Z,22.33
2018-07-28T07:54:58.170Z,22.40
2018-07-28T07:57:27.166Z,21.47
2018-07-28T07:59:56.224Z,21.07
2018-07-28T08:02:25.150Z,18.07
2018-07-28T08:04:54.200Z,17.87
2018-07-28T08:07:23.180Z,17.70
2018-07-28T08:09:52.751Z,12.10
2018-07-28T08:12:21.860Z,13.30
2018-07-28T08:14:50.824Z,10.93
2018-07-28T08:17:19.838Z,9.83
2018-07-28T08:19:48.796Z,10.67
2018-07-28T08:22:18.150Z,16.30
2018-07-28T08:24:47.089Z,15.17
2018-07-28T08:27:16.026Z,14.07
2018-07-28T08:29:45.009Z,15.70
2018-07-28T08:32:14.738Z,21.67
2018-07-28T08:34:43.700Z,15.87
2018-07-28T08:37:12.796Z,17.80
2018-07-28T08:39:41.822Z,17.60
2018-07-28T08:42:10.929Z,17.70
2018-07-28T08:44:40.960Z,18.43
2018-07-28T08:47:10.421Z,15.73
2018-07-28T08:49:39.480Z,14.27
2018-07-28T08:52:08.593Z,13.83
2018-07-28T08:54:37.552Z,10.80
2018-07-28T08:57:06.544Z,11.83
2018-07-28T08:59:35.525Z,10.23
2018-07-28T09:02:04.526Z,10.17
2018-07-28T09:04:33.464Z,11.40
2018-07-28T09:07:02.515Z,11.07
2018-07-28T09:09:31.505Z,8.80
2018-07-28T09:12:00.668Z,9.63
2018-07-28T09:14:29.644Z,7.93
2018-07-28T09:16:58.616Z,8.73
2018-07-28T09:19:27.560Z,8.13
2018-07-28T09:21:56.442Z,8.73
2018-07-28T09:24:25.383Z,7.73
2018-07-28T09:26:54.406Z,7.83
2018-07-28T09:29:23.374Z,8.77
2018-07-28T09:31:52.389Z,7.60
2018-07-28T09:34:21.366Z,8.20
2018-07-28T09:36:50.405Z,9.83
2018-07-28T09:39:19.366Z,9.80
2018-07-28T09:41:48.296Z,8.57
2018-07-28T09:44:17.243Z,11.47
2018-07-28T09:46:46.360Z,9.43
2018-07-28T09:49:15.351Z,10.27
2018-07-28T09:51:44.547Z,11.07
2018-07-28T09:54:13.619Z,12.63
2018-07-28T09:56:42.653Z,11.40
2018-07-28T09:59:11.646Z,14.30
2018-07-28T10:01:40.788Z,13.87
2018-07-28T10:04:09.880Z,12.53
2018-07-28T10:06:39.042Z,15.73
2018-07-28T10:09:10.161Z,17.23
2018-07-28T10:11:39.196Z,16.57
2018-07-28T10:14:08.361Z,17.43
2018-07-28T10:16:37.475Z,15.33
2018-07-28T10:19:06.456Z,15.27
2018-07-28T10:21:35.568Z,15.13
2018-07-28T10:24:04.540Z,16.50
2018-07-28T10:26:33.443Z,16.23
2018-07-28T10:29:02.472Z,19.20
2018-07-28T10:31:31.453Z,17.20
2018-07-28T10:34:00.413Z,16.00
2018-07-28T10:36:29.568Z,15.03
2018-07-28T10:38:58.486Z,15.17
2018-07-28T10:41:27.503Z,15.40
2018-07-28T10:43:56.501Z,13.17
2018-07-28T10:46:25.445Z,14.27
2018-07-28T10:48:54.410Z,14.63
2018-07-28T10:51:23.366Z,16.10
2018-07-28T10:53:52.242Z,17.33
2018-07-28T10:56:21.152Z,15.67
2018-07-28T10:58:51.175Z,16.53
2018-07-28T11:01:20.171Z,15.33
2018-07-28T11:03:49.143Z,16.07
2018-07-28T11:06:18.168Z,15.13
2018-07-28T11:08:47.211Z,13.87
2018-07-28T11:11:18.274Z,12.83
2018-07-28T11:13:47.344Z,10.80
2018-07-28T11:16:16.550Z,10.87
2018-07-28T11:18:45.561Z,11.37
2018-07-28T11:21:14.443Z,9.53
2018-07-28T11:23:51.383Z,8.07
2018-07-28T11:26:21.465Z,8.93
2018-07-28T11:28:51.269Z,9.57
2018-07-28T11:31:31.851Z,8.00
2018-07-28T11:34:12.068Z,7.23
2018-07-28T11:36:52.911Z,9.87
2018-07-28T11:39:33.215Z,11.47
2018-07-28T11:42:13.542Z,14.93
2018-07-28T11:44:53.859Z,11.60
2018-07-28T11:47:22.839Z,10.17
2018-07-28T11:49:51.839Z,8.90
2018-07-28T11:52:20.782Z,9.37
2018-07-28T11:54:49.809Z,10.10
2018-07-28T11:57:18.794Z,12.87
2018-07-28T11:59:47.879Z,12.63
2018-07-28T12:02:16.787Z,11.23
2018-07-28T12:04:45.879Z,16.07
2018-07-28T12:07:14.711Z,9.83
2018-07-28T12:09:43.639Z,9.23
2018-07-28T12:12:12.547Z,9.97
2018-07-28T12:14:41.587Z,12.23
2018-07-28T12:17:10.511Z,13.93
2018-07-28T12:19:39.625Z,12.37
2018-07-28T12:22:08.709Z,12.47
2018-07-28T12:24:37.718Z,14.93
2018-07-28T12:27:06.815Z,16.10
2018-07-28T12:29:35.705Z,13.30
2018-07-28T12:32:04.906Z,17.07
2018-07-28T12:34:33.773Z,13.30
2018-07-28T12:37:02.880Z,16.73
2018-07-28T12:39:31.751Z,11.37
2018-07-28T12:42:00.672Z,17.97
2018-07-28T12:44:29.667Z,13.67
2018-07-28T12:46:58.632Z,10.30
2018-07-28T12:49:27.605Z,12.47
2018-07-28T12:51:56.576Z,11.27
2018-07-28T12:54:25.543Z,13.87
2018-07-28T12:56:54.522Z,7.83
2018-07-28T12:59:23.547Z,13.03
2018-07-28T13:01:52.415Z,14.53
2018-07-28T13:04:21.429Z,10.57
2018-07-28T13:06:50.513Z,14.30
2018-07-28T13:09:19.400Z,17.83
2018-07-28T13:11:48.320Z,9.00
2018-07-28T13:14:17.385Z,13.43
2018-07-28T13:16:46.231Z,10.53
2018-07-28T13:19:15.149Z,14.17
2018-07-28T13:21:44.140Z,14.20
2018-07-28T13:24:13.149Z,10.83
2018-07-28T13:26:42.035Z,14.93
2018-07-28T13:29:11.018Z,14.80
2018-07-28T13:31:40.036Z,14.67
2018-07-28T13:34:09.019Z,11.90
2018-07-28T13:36:37.895Z,12.13
2018-07-28T13:39:07.707Z,17.40
2018-07-28T13:41:36.667Z,10.90
2018-07-28T13:44:05.853Z,17.13
2018-07-28T13:46:34.838Z,19.83
2018-07-28T13:49:03.977Z,13.77
2018-07-28T13:51:32.867Z,13.67
2018-07-28T13:54:01.899Z,12.10
2018-07-28T13:56:30.864Z,12.60
2018-07-28T13:59:00.547Z,11.80
2018-07-28T14:01:29.451Z,14.40
2018-07-28T14:03:58.511Z,12.37
2018-07-28T14:06:27.472Z,12.97
2018-07-28T14:08:58.307Z,13.40
2018-07-28T14:11:27.307Z,10.27
2018-07-28T14:13:56.211Z,13.07
2018-07-28T14:16:25.288Z,13.93
2018-07-28T14:18:54.634Z,11.10
2018-07-28T14:21:23.497Z,9.63
2018-07-28T14:23:52.465Z,10.17
2018-07-28T14:26:21.457Z,8.07
2018-07-28T14:28:50.587Z,15.43
2018-07-28T14:31:19.467Z,7.73
2018-07-28T14:33:48.440Z,12.40
2018-07-28T14:36:17.335Z,14.33
2018-07-28T14:38:46.238Z,8.57
2018-07-28T14:41:15.147Z,11.03
2018-07-28T14:43:44.261Z,9.30
2018-07-28T14:46:13.335Z,10.80
2018-07-28T14:48:42.406Z,16.43
2018-07-28T14:51:11.404Z,9.40
2018-07-28T14:53:40.336Z,14.50
2018-07-28T14:56:09.488Z,7.77
2018-07-28T14:58:38.602Z,9.03
2018-07-28T15:01:07.611Z,9.93
2018-07-28T15:03:36.561Z,7.63
2018-07-28T15:06:05.466Z,9.73
2018-07-28T15:08:34.350Z,8.87
2018-07-28T15:11:03.382Z,14.33
2018-07-28T15:13:32.258Z,6.47
2018-07-28T15:16:01.238Z,11.27
2018-07-28T15:18:30.225Z,6.10
2018-07-28T15:20:59.315Z,9.13
2018-07-28T15:23:28.267Z,9.87
2018-07-28T15:25:57.243Z,9.73
2018-07-28T15:28:26.131Z,5.37
2018-07-28T15:30:55.241Z,6.90
2018-07-28T15:33:24.179Z,11.57
2018-07-28T15:35:53.431Z,10.13
2018-07-28T15:38:22.470Z,14.77
2018-07-28T15:40:51.378Z,8.33
2018-07-28T15:43:20.456Z,10.07
2018-07-28T15:45:49.456Z,14.47
2018-07-28T15:48:18.452Z,9.20
2018-07-28T15:50:47.488Z,10.90
2018-07-28T15:53:16.445Z,6.10
2018-07-28T15:55:45.345Z,10.60
2018-07-28T15:58:14.245Z,8.00
2018-07-28T16:00:43.207Z,15.10
2018-07-28T16:03:12.118Z,7.00
2018-07-28T16:05:41.096Z,12.57
2018-07-28T16:08:10.076Z,15.37
2018-07-28T16:10:38.985Z,9.77
2018-07-28T16:13:07.971Z,9.63
2018-07-28T16:15:37.015Z,8.70
2018-07-28T16:18:07.033Z,7.97
2018-07-28T16:20:42.754Z,8.17
2018-07-28T16:23:12.939Z,13.13
2018-07-28T16:25:41.865Z,15.03
2018-07-28T16:28:10.883Z,13.80
2018-07-28T16:30:39.845Z,16.07
2018-07-28T16:33:08.931Z,11.57
2018-07-28T16:35:37.868Z,15.53
2018-07-28T16:38:06.820Z,15.07
2018-07-28T16:40:41.247Z,8.87
2018-07-28T16:43:10.296Z,18.33
2018-07-28T16:45:39.235Z,11.43
2018-07-28T16:48:08.227Z,16.57
2018-07-28T16:50:37.155Z,9.30
2018-07-28T16:53:06.071Z,8.67
2018-07-28T16:55:37.213Z,8.23
2018-07-28T16:58:06.125Z,12.97
2018-07-28T17:00:35.108Z,11.47
2018-07-28T17:03:03.996Z,9.50
2018-07-28T17:05:32.891Z,10.77
2018-07-28T17:08:01.887Z,12.87
2018-07-28T17:10:30.807Z,17.50
2018-07-28T17:12:59.991Z,16.23
2018-07-28T17:15:28.874Z,15.87
2018-07-28T17:17:57.764Z,18.47
2018-07-28T17:20:26.758Z,14.93
2018-07-28T17:22:55.648Z,9.97
2018-07-28T17:25:24.653Z,19.93
2018-07-28T17:27:53.564Z,11.20
2018-07-28T17:30:22.424Z,12.23
2018-07-28T17:32:51.523Z,11.70
2018-07-28T17:35:20.623Z,13.57
2018-07-28T17:37:50.029Z,12.00
2018-07-28T17:40:18.955Z,12.07
2018-07-28T17:42:47.871Z,12.53
2018-07-28T17:45:16.798Z,11.87
2018-07-28T17:47:45.812Z,14.57
2018-07-28T17:50:14.847Z,11.43
2018-07-28T17:52:43.820Z,12.53
2018-07-28T17:55:12.808Z,9.37
2018-07-28T17:57:41.761Z,14.63
2018-07-28T18:00:10.956Z,10.37
2018-07-28T18:02:39.990Z,14.20
2018-07-28T18:05:09.057Z,16.67
2018-07-28T18:07:38.065Z,15.90
2018-07-28T18:10:07.079Z,15.60
2018-07-28T18:12:36.066Z,12.07
2018-07-28T18:15:05.060Z,12.40
2018-07-28T18:17:33.962Z,18.13
2018-07-28T18:20:02.861Z,15.50
2018-07-28T18:22:31.811Z,11.47
2018-07-28T18:25:00.755Z,15.60
2018-07-28T18:27:30.464Z,18.33
2018-07-28T18:29:59.366Z,18.03
2018-07-28T18:32:28.260Z,15.27
2018-07-28T18:34:57.400Z,14.87
2018-07-28T18:37:26.386Z,13.90
2018-07-28T18:39:55.266Z,11.37
2018-07-28T18:42:24.162Z,8.93
2018-07-28T18:44:53.045Z,10.23
2018-07-28T18:47:21.928Z,12.50
2018-07-28T18:49:50.914Z,12.60
2018-07-28T18:52:19.796Z,13.33
2018-07-28T18:54:48.820Z,18.90
2018-07-28T18:57:17.665Z,16.07
2018-07-28T18:59:46.635Z,13.63
2018-07-28T19:02:15.536Z,14.33
2018-07-28T19:04:45.338Z,14.63
2018-07-28T19:07:14.271Z,12.53
2018-07-28T19:09:49.199Z,16.57
2018-07-28T19:12:22.422Z,10.03
2018-07-28T19:14:51.507Z,14.97
2018-07-28T19:17:20.511Z,16.67
2018-07-28T19:19:49.475Z,14.57
2018-07-28T19:22:23.619Z,10.97
2018-07-28T19:24:52.508Z,14.13
2018-07-28T19:27:21.502Z,11.63
2018-07-28T19:29:50.603Z,14.03
2018-07-28T19:32:19.592Z,9.67
2018-07-28T19:34:48.623Z,14.47
2018-07-28T19:37:20.862Z,11.37
2018-07-28T19:39:49.951Z,17.10
2018-07-28T19:42:24.236Z,13.37
2018-07-28T19:44:53.196Z,13.73
2018-07-28T19:47:22.153Z,12.13
2018-07-28T19:49:51.027Z,12.87
2018-07-28T19:52:20.158Z,8.87
2018-07-28T19:54:50.320Z,11.50
2018-07-28T19:57:20.491Z,10.23
2018-07-28T19:59:49.499Z,13.10
2018-07-28T20:02:18.370Z,11.27
2018-07-28T20:04:47.361Z,13.03
2018-07-28T20:07:16.329Z,15.33
2018-07-28T20:09:45.254Z,12.87
2018-07-28T20:12:14.145Z,8.03
2018-07-28T20:14:43.124Z,10.70
2018-07-28T20:17:12.226Z,11.63
2018-07-28T20:19:41.194Z,10.13
2018-07-28T20:22:10.067Z,7.93
2018-07-28T20:24:39.048Z,12.20
2018-07-28T20:27:07.901Z,8.83
2018-07-28T20:29:36.986Z,8.90
2018-07-28T20:32:06.136Z,11.80
2018-07-28T20:34:35.096Z,10.77
2018-07-28T20:37:04.083Z,15.87
2018-07-28T20:39:33.075Z,11.33
2018-07-28T20:42:02.064Z,10.23
2018-07-28T20:44:31.153Z,9.73
2018-07-28T20:47:00.164Z,12.73
2018-07-28T20:49:29.191Z,20.60
2018-07-28T20:51:58.055Z,9.97
2018-07-28T20:54:27.120Z,13.80
2018-07-28T20:56:56.030Z,8.90
2018-07-28T20:59:24.959Z,8.57
2018-07-28T21:01:53.902Z,11.10
2018-07-28T21:04:22.914Z,9.13
2018-07-28T21:06:51.893Z,10.10
2018-07-28T21:09:20.804Z,6.23
2018-07-28T21:11:49.641Z,9.53
2018-07-28T21:14:18.579Z,9.60
2018-07-28T21:16:47.563Z,12.83
2018-07-28T21:19:16.549Z,9.20
2018-07-28T21:21:45.470Z,13.07
2018-07-28T21:24:14.341Z,12.50
2018-07-28T21:26:43.232Z,9.93
2018-07-28T21:29:12.299Z,7.10
2018-07-28T21:31:41.307Z,11.47
2018-07-28T21:34:10.204Z,9.03
2018-07-28T21:36:39.203Z,5.50
2018-07-28T21:39:09.754Z,7.27
2018-07-28T21:41:38.643Z,8.63
2018-07-28T21:44:07.626Z,12.03
2018-07-28T21:46:36.504Z,8.60
2018-07-28T21:49:05.417Z,12.40
2018-07-28T21:51:34.289Z,7.43
2018-07-28T21:54:03.161Z,8.23
2018-07-28T21:56:32.169Z,8.70
2018-07-28T21:59:01.158Z,8.00
2018-07-28T22:01:30.166Z,8.07
2018-07-28T22:04:02.499Z,10.37
2018-07-28T22:06:32.554Z,10.40
2018-07-28T22:09:01.555Z,10.77
2018-07-28T22:11:30.596Z,10.00
2018-07-28T22:13:59.570Z,9.33
2018-07-28T22:16:28.540Z,8.60
2018-07-28T22:18:57.508Z,8.97
2018-07-28T22:21:26.503Z,6.20
2018-07-28T22:23:55.615Z,9.33
2018-07-28T22:26:24.646Z,9.13
2018-07-28T22:28:53.595Z,9.57
2018-07-28T22:31:22.560Z,9.10
2018-07-28T22:33:51.556Z,11.10
2018-07-28T22:36:20.596Z,10.97
2018-07-28T22:38:49.550Z,12.13
2018-07-28T22:41:18.534Z,13.00
2018-07-28T22:43:47.542Z,12.83
2018-07-28T22:46:16.495Z,9.03
2018-07-28T22:48:45.438Z,6.53
2018-07-28T22:51:14.415Z,9.17
2018-07-28T22:53:43.310Z,8.30
2018-07-28T22:56:12.406Z,13.20
2018-07-28T22:58:41.364Z,9.13
2018-07-28T23:01:10.366Z,7.23
2018-07-28T23:03:39.266Z,8.40
2018-07-28T23:06:08.290Z,14.37
2018-07-28T23:08:37.247Z,10.17
2018-07-28T23:11:06.254Z,9.60
2018-07-28T23:13:35.188Z,9.87
2018-07-28T23:16:04.155Z,9.57
2018-07-28T23:18:33.127Z,11.63
2018-07-28T23:21:02.403Z,7.27
2018-07-28T23:23:31.396Z,7.33
2018-07-28T23:26:00.340Z,4.80
2018-07-28T23:28:29.325Z,11.00
2018-07-28T23:30:59.054Z,6.43
2018-07-28T23:33:27.981Z,8.50
2018-07-28T23:35:56.937Z,13.60
2018-07-28T23:38:25.925Z,6.67
2018-07-28T23:40:54.933Z,11.10
2018-07-28T23:43:24.622Z,8.37
2018-07-28T23:45:53.595Z,7.40
2018-07-28T23:48:23.620Z,10.73
2018-07-28T23:50:52.624Z,9.40
2018-07-28T23:53:21.723Z,6.73
2018-07-28T23:55:50.744Z,8.83
2018-07-28T23:58:19.716Z,5.83
